Harrods Creek, Kentucky
Current Conditions -  °F | °C
As of 7:53 PM on Saturday 25 Oct 2014 (Local Time) from KLOU Reporting Station
Clear Clear  
Wind Chill: 20°   Ceiling: Unl
Heat Index: 20°   Visibility: 10mi
Dew Point: 13°   Wind: 5mph
Humidity: 65%   Direction: 240°WSW
Pressure: 29.96"   Gusts: NA
Location:  38.33°N, 85.63°W
Report Text: KLOU 252353Z 24004KT 10SM CLR 20/13 A2996 RMK AO2 SLP145 T02000133 10239 20189 50000
Loading
Personal Weather Stations






























Interactive Weather Map
Tropical Storm Tracking
New forecast layout! Learn more

10-Day Weather Forecast

Advertisements
Track Severe Weather on mobile